Time;durP1;ratioP1;P1;durP2;ratioP2;P2;SDS_P1;SDS_P2;PMS_P1;PMS_P2;Temp;Humidity;BMP_temperature;BMP_pressure;BME280_temperature;BME280_humidity;BME280_pressure;Samples;Min_cycle;Max_cycle;Signal;HPM_P1;HPM_P2
2024/03/08 00:00:09;;;;;;;20.03;14.43;;;2.40;99.90;;;;;;5013243;28;20437;-61
2024/03/08 00:02:36;;;;;;;21.70;14.87;;;2.40;99.90;;;;;;5013886;28;20846;-64
2024/03/08 00:05:03;;;;;;;19.93;14.60;;;2.40;99.90;;;;;;5014527;28;20545;-64
2024/03/08 00:07:29;;;;;;;26.90;14.70;;;2.40;99.90;;;;;;5014622;28;20793;-64
2024/03/08 00:09:55;;;;;;;22.70;14.67;;;2.40;99.90;;;;;;5013901;28;20554;-64
2024/03/08 00:12:20;;;;;;;30.97;18.00;;;2.30;99.90;;;;;;5015868;28;20176;-64
2024/03/08 00:14:46;;;;;;;22.87;14.83;;;2.20;99.90;;;;;;5014158;28;20197;-64
2024/03/08 00:17:11;;;;;;;27.10;15.10;;;2.20;99.90;;;;;;5014392;28;20184;-63
2024/03/08 00:19:37;;;;;;;32.07;17.40;;;2.20;99.90;;;;;;5014795;28;20180;-64
2024/03/08 00:22:02;;;;;;;24.53;16.27;;;2.20;99.90;;;;;;5014548;28;20180;-64
2024/03/08 00:24:28;;;;;;;24.90;14.93;;;2.20;99.90;;;;;;5013599;28;20226;-65
2024/03/08 00:26:54;;;;;;;28.07;16.63;;;2.20;99.90;;;;;;5014369;28;20179;-64
2024/03/08 00:29:20;;;;;;;28.70;16.60;;;2.10;99.90;;;;;;5014245;28;20423;-64
2024/03/08 00:31:46;;;;;;;20.43;14.17;;;2.10;99.90;;;;;;5014154;28;20503;-63
2024/03/08 00:34:11;;;;;;;27.43;15.57;;;2.20;99.90;;;;;;5013959;28;20220;-64
2024/03/08 00:36:37;;;;;;;23.70;15.67;;;2.10;99.90;;;;;;5014320;28;20208;-64
2024/03/08 00:39:06;;;;;;;28.53;16.80;;;2.10;99.90;;;;;;5014775;28;20647;-64
2024/03/08 00:41:32;;;;;;;25.37;15.60;;;2.10;99.90;;;;;;5014492;28;20427;-63
2024/03/08 00:43:58;;;;;;;26.43;14.63;;;2.10;99.90;;;;;;5014078;28;20993;-64
2024/03/08 00:46:24;;;;;;;23.17;15.10;;;2.00;99.90;;;;;;5013963;28;20477;-62
2024/03/08 00:48:49;;;;;;;27.63;15.33;;;2.00;99.90;;;;;;5010444;28;20184;-62
2024/03/08 00:51:18;;;;;;;28.03;14.43;;;1.90;99.90;;;;;;5016910;28;20168;-63
2024/03/08 00:53:43;;;;;;;29.40;15.37;;;1.90;99.90;;;;;;5013703;28;20387;-63
2024/03/08 00:56:12;;;;;;;23.37;15.10;;;1.90;99.90;;;;;;5013770;28;20502;-63
2024/03/08 00:58:37;;;;;;;32.17;15.77;;;1.80;99.90;;;;;;5009942;28;20189;-63
2024/03/08 01:01:04;;;;;;;23.30;14.77;;;1.80;99.90;;;;;;5012787;28;20420;-63
2024/03/08 01:03:31;;;;;;;20.83;15.27;;;1.80;99.90;;;;;;5013624;28;20187;-62
2024/03/08 01:06:01;;;;;;;26.47;18.20;;;1.80;99.90;;;;;;5013511;28;20423;-63
2024/03/08 01:08:27;;;;;;;20.63;14.77;;;1.80;99.90;;;;;;5013078;28;20423;-62
2024/03/08 01:10:53;;;;;;;25.63;16.03;;;1.80;99.90;;;;;;5012931;28;20411;-62
2024/03/08 01:13:19;;;;;;;25.37;15.83;;;1.80;99.90;;;;;;5014044;28;20418;-63
2024/03/08 01:15:45;;;;;;;24.47;16.10;;;1.70;99.90;;;;;;5013765;28;20442;-62
2024/03/08 01:18:11;;;;;;;30.07;16.23;;;1.70;99.90;;;;;;5014194;28;20627;-64
2024/03/08 01:20:37;;;;;;;24.83;16.00;;;1.70;99.90;;;;;;5016512;28;20420;-64
2024/03/08 01:23:03;;;;;;;37.13;17.77;;;1.70;99.90;;;;;;5015589;28;20172;-62
2024/03/08 01:25:29;;;;;;;28.00;17.27;;;1.60;99.90;;;;;;5015503;28;20228;-62
2024/03/08 01:27:54;;;;;;;29.73;13.83;;;1.60;99.90;;;;;;5015697;28;20983;-62
2024/03/08 01:30:20;;;;;;;23.50;15.13;;;1.60;99.90;;;;;;5013931;28;20176;-63
2024/03/08 01:32:45;;;;;;;22.40;14.97;;;1.50;99.90;;;;;;5010705;28;20609;-64
2024/03/08 01:35:11;;;;;;;22.57;15.20;;;1.40;99.90;;;;;;5012508;28;20200;-64
2024/03/08 01:37:38;;;;;;;27.30;15.97;;;1.50;99.90;;;;;;5013392;28;20176;-63
2024/03/08 01:40:03;;;;;;;25.83;15.80;;;1.50;99.90;;;;;;5012586;28;20206;-64
2024/03/08 01:42:29;;;;;;;25.20;16.13;;;1.50;99.90;;;;;;5012396;28;20411;-63
2024/03/08 01:44:55;;;;;;;28.20;15.37;;;1.50;99.90;;;;;;5012803;28;20467;-64
2024/03/08 01:47:22;;;;;;;24.63;15.47;;;1.50;99.90;;;;;;5013042;28;20177;-63
2024/03/08 01:49:49;;;;;;;22.70;14.20;;;1.40;99.90;;;;;;5007487;28;20176;-64
2024/03/08 01:52:16;;;;;;;27.47;18.17;;;1.40;99.90;;;;;;5010683;28;20419;-64
2024/03/08 01:54:42;;;;;;;30.33;15.23;;;1.40;99.90;;;;;;5012045;28;20495;-62
2024/03/08 01:57:08;;;;;;;23.03;15.47;;;1.30;99.90;;;;;;5012644;28;20407;-63
2024/03/08 01:59:34;;;;;;;21.80;14.53;;;1.40;99.90;;;;;;5012752;28;21033;-63
2024/03/08 02:02:02;;;;;;;23.13;15.30;;;1.30;99.90;;;;;;5012445;28;20219;-63
2024/03/08 02:04:30;;;;;;;30.53;15.63;;;1.30;99.90;;;;;;5009907;28;20516;-62
2024/03/08 02:06:57;;;;;;;28.53;15.90;;;1.30;99.90;;;;;;5013111;28;20419;-63
2024/03/08 02:09:24;;;;;;;22.20;15.17;;;1.30;99.90;;;;;;5012336;28;20439;-63
2024/03/08 02:11:50;;;;;;;22.73;16.03;;;1.30;99.90;;;;;;5006462;28;20443;-63
2024/03/08 02:14:18;;;;;;;31.30;16.73;;;1.30;99.90;;;;;;5012383;28;20454;-63
2024/03/08 02:16:47;;;;;;;21.20;13.43;;;1.30;99.90;;;;;;5012470;28;20836;-63
2024/03/08 02:19:12;;;;;;;21.80;15.50;;;1.20;99.90;;;;;;5008609;28;20420;-62
2024/03/08 02:21:38;;;;;;;24.93;15.10;;;1.20;99.90;;;;;;5012339;28;20421;-62
2024/03/08 02:24:04;;;;;;;26.83;17.13;;;1.20;99.90;;;;;;5011671;28;20642;-62
2024/03/08 02:26:30;;;;;;;27.83;15.37;;;1.20;99.90;;;;;;5011979;28;20255;-62
2024/03/08 02:28:56;;;;;;;27.93;15.70;;;1.20;99.90;;;;;;5011581;28;20961;-64
2024/03/08 02:31:21;;;;;;;27.90;15.70;;;1.20;99.90;;;;;;5011605;28;20411;-62
2024/03/08 02:33:47;;;;;;;26.87;18.03;;;1.10;99.90;;;;;;5010879;28;20417;-61
2024/03/08 02:36:13;;;;;;;26.93;17.23;;;1.10;99.90;;;;;;5013176;28;20172;-62
2024/03/08 02:38:41;;;;;;;22.67;15.73;;;1.10;99.90;;;;;;5011711;28;20207;-62
2024/03/08 02:41:08;;;;;;;25.47;15.00;;;1.10;99.90;;;;;;5011740;28;20424;-63
2024/03/08 02:43:34;;;;;;;31.20;18.83;;;1.10;99.90;;;;;;5010660;28;20423;-63
2024/03/08 02:46:00;;;;;;;24.93;17.10;;;1.00;99.90;;;;;;5011263;28;20411;-62
2024/03/08 02:48:25;;;;;;;34.60;18.30;;;1.00;99.90;;;;;;5011681;28;20941;-61
2024/03/08 02:50:51;;;;;;;27.43;16.10;;;1.00;99.90;;;;;;5003926;28;20247;-61
2024/03/08 02:53:18;;;;;;;25.87;17.10;;;1.00;99.90;;;;;;5011785;28;20175;-62
2024/03/08 02:55:44;;;;;;;26.83;15.83;;;1.10;99.90;;;;;;5006443;28;20435;-65
2024/03/08 02:58:10;;;;;;;29.03;16.83;;;1.10;99.90;;;;;;5011701;28;20914;-62
2024/03/08 03:00:39;;;;;;;28.87;16.03;;;1.00;99.90;;;;;;5011494;28;20411;-62
2024/03/08 03:03:06;;;;;;;27.60;17.00;;;1.00;99.90;;;;;;5011607;28;20176;-63
2024/03/08 03:05:32;;;;;;;26.40;17.20;;;1.00;99.90;;;;;;5010836;28;20829;-63
2024/03/08 03:07:58;;;;;;;28.63;16.77;;;1.00;99.90;;;;;;5011604;28;20412;-63
2024/03/08 03:10:24;;;;;;;32.73;17.87;;;1.00;99.90;;;;;;5010517;28;20182;-63
2024/03/08 03:12:49;;;;;;;22.10;15.37;;;1.00;99.90;;;;;;5011102;28;20498;-63
2024/03/08 03:15:18;;;;;;;25.90;16.53;;;0.90;99.90;;;;;;5010771;28;21056;-62
2024/03/08 03:17:48;;;;;;;22.30;14.70;;;0.90;99.90;;;;;;5011354;28;20259;-63
2024/03/08 03:20:14;;;;;;;28.73;16.30;;;0.90;99.90;;;;;;5007125;28;20419;-63
2024/03/08 03:22:40;;;;;;;25.23;17.03;;;0.90;99.90;;;;;;5010499;28;20423;-63
2024/03/08 03:25:10;;;;;;;26.80;15.83;;;0.90;99.90;;;;;;5010718;28;20985;-63
2024/03/08 03:27:35;;;;;;;26.43;17.30;;;0.90;99.90;;;;;;5010094;28;20869;-62
2024/03/08 03:30:20;;;;;;;33.93;17.87;;;0.80;99.90;;;;;;5009916;28;20515;-62
2024/03/08 03:32:46;;;;;;;22.47;16.20;;;0.90;99.90;;;;;;5010525;28;20981;-63
2024/03/08 03:35:16;;;;;;;28.90;18.20;;;0.90;99.90;;;;;;5010992;28;20443;-64
2024/03/08 03:37:51;;;;;;;24.90;15.90;;;0.80;99.90;;;;;;5010637;28;20416;-63
2024/03/08 03:40:18;;;;;;;31.30;17.37;;;0.80;99.90;;;;;;5011089;28;20975;-63
2024/03/08 03:42:45;;;;;;;25.67;15.47;;;0.90;99.90;;;;;;5011093;28;20427;-65
2024/03/08 03:45:11;;;;;;;30.03;17.90;;;0.90;99.90;;;;;;5006589;28;20489;-62
2024/03/08 03:47:37;;;;;;;28.43;17.40;;;0.80;99.90;;;;;;5010794;28;20453;-62
2024/03/08 03:50:04;;;;;;;34.13;17.90;;;0.80;99.90;;;;;;5011031;28;20172;-63
2024/03/08 03:52:30;;;;;;;27.60;17.57;;;0.80;99.90;;;;;;5009734;28;20415;-63
2024/03/08 03:54:56;;;;;;;24.77;17.87;;;0.80;99.90;;;;;;5010521;28;20434;-63
2024/03/08 03:57:22;;;;;;;26.20;16.90;;;0.80;99.90;;;;;;5011168;28;20180;-64
2024/03/08 03:59:48;;;;;;;28.43;17.33;;;0.80;99.90;;;;;;5009029;28;20427;-63
2024/03/08 04:02:14;;;;;;;27.50;16.47;;;0.70;99.90;;;;;;5010089;28;20430;-63
2024/03/08 04:04:40;;;;;;;30.53;17.37;;;0.70;99.90;;;;;;5010719;28;20640;-64
2024/03/08 04:07:06;;;;;;;31.67;19.50;;;0.70;99.90;;;;;;5010876;28;20473;-64
2024/03/08 04:09:31;;;;;;;23.83;16.40;;;0.70;99.90;;;;;;5009586;28;20226;-63
2024/03/08 04:11:57;;;;;;;26.50;18.93;;;0.70;99.90;;;;;;5010445;28;20419;-64
2024/03/08 04:14:23;;;;;;;26.80;16.83;;;0.70;99.90;;;;;;5010243;28;20196;-63
2024/03/08 04:16:49;;;;;;;35.20;19.50;;;0.70;99.90;;;;;;5010159;28;20176;-63
2024/03/08 04:19:14;;;;;;;30.73;17.03;;;0.70;99.90;;;;;;5010642;28;20469;-63
2024/03/08 04:21:40;;;;;;;29.27;19.33;;;0.70;99.90;;;;;;5008868;28;20592;-63
2024/03/08 04:24:06;;;;;;;28.93;18.20;;;0.60;99.90;;;;;;5010519;28;20208;-63
2024/03/08 04:26:32;;;;;;;35.57;18.57;;;0.60;99.90;;;;;;5010940;28;20169;-62
2024/03/08 04:28:57;;;;;;;32.17;20.40;;;0.60;99.90;;;;;;5011397;28;20643;-64
2024/03/08 04:31:23;;;;;;;27.70;17.50;;;0.60;99.90;;;;;;5010260;28;20415;-66
2024/03/08 04:33:48;;;;;;;29.07;17.37;;;0.60;99.90;;;;;;5004863;28;20200;-63
2024/03/08 04:36:14;;;;;;;30.23;18.03;;;0.60;99.90;;;;;;5014225;28;20246;-63
2024/03/08 04:38:40;;;;;;;29.13;18.03;;;0.60;99.90;;;;;;5013677;28;20184;-63
2024/03/08 04:41:07;;;;;;;27.70;18.30;;;0.60;99.90;;;;;;5013877;28;20207;-63
2024/03/08 04:43:33;;;;;;;31.80;19.20;;;0.60;99.90;;;;;;5013462;28;20862;-62
2024/03/08 04:45:59;;;;;;;31.43;18.10;;;0.50;99.90;;;;;;5013476;28;20461;-64
2024/03/08 04:48:26;;;;;;;33.90;17.97;;;0.60;99.90;;;;;;5014331;28;20450;-61
2024/03/08 04:50:53;;;;;;;27.23;17.00;;;0.50;99.90;;;;;;5012381;28;20179;-63
2024/03/08 04:53:19;;;;;;;29.87;19.73;;;0.50;99.90;;;;;;5013846;28;20411;-62
2024/03/08 04:55:45;;;;;;;32.33;18.97;;;0.60;99.90;;;;;;5013708;28;21011;-62
2024/03/08 04:58:10;;;;;;;29.57;18.20;;;0.60;99.90;;;;;;5014482;28;20411;-61
2024/03/08 05:00:36;;;;;;;28.53;16.70;;;0.60;99.90;;;;;;5013472;28;20512;-62
2024/03/08 05:03:01;;;;;;;27.57;17.87;;;0.50;99.90;;;;;;5014142;28;20168;-64
2024/03/08 05:05:28;;;;;;;29.97;18.57;;;0.60;99.90;;;;;;5013289;28;20211;-62
2024/03/08 05:07:54;;;;;;;30.20;17.80;;;0.50;99.90;;;;;;5013279;28;20172;-65
2024/03/08 05:10:20;;;;;;;30.63;18.10;;;0.50;99.90;;;;;;5013475;28;20415;-63
2024/03/08 05:12:45;;;;;;;28.00;18.93;;;0.50;99.90;;;;;;5013348;28;20181;-63
2024/03/08 05:15:11;;;;;;;34.90;19.10;;;0.50;99.90;;;;;;5012404;28;20666;-63
2024/03/08 05:17:36;;;;;;;29.87;18.80;;;0.50;99.90;;;;;;5013291;28;20180;-64
2024/03/08 05:20:03;;;;;;;32.37;19.03;;;0.50;99.90;;;;;;5013584;28;20231;-63
2024/03/08 05:22:29;;;;;;;28.70;16.57;;;0.50;99.90;;;;;;5013174;28;20188;-63
2024/03/08 05:24:55;;;;;;;27.70;18.33;;;0.40;99.90;;;;;;5012701;28;20470;-64
2024/03/08 05:27:21;;;;;;;30.90;19.27;;;0.40;99.90;;;;;;5011383;28;20598;-64
2024/03/08 05:29:46;;;;;;;29.37;17.47;;;0.40;99.90;;;;;;5012954;28;20411;-64
2024/03/08 05:32:12;;;;;;;37.83;20.13;;;0.40;99.90;;;;;;5012611;28;20639;-64
2024/03/08 05:34:38;;;;;;;31.10;20.07;;;0.40;99.90;;;;;;5012477;28;20211;-62
2024/03/08 05:37:04;;;;;;;32.53;17.87;;;0.40;99.90;;;;;;5012780;28;20176;-62
2024/03/08 05:39:30;;;;;;;31.50;19.77;;;0.40;99.90;;;;;;5011005;28;20485;-62
2024/03/08 05:41:55;;;;;;;27.87;18.37;;;0.40;99.90;;;;;;5012479;28;20442;-63
2024/03/08 05:44:21;;;;;;;30.23;16.47;;;0.40;99.90;;;;;;5012964;28;20786;-62
2024/03/08 05:46:47;;;;;;;41.73;18.63;;;0.40;99.90;;;;;;5011181;28;20644;-63
2024/03/08 05:49:13;;;;;;;36.97;19.43;;;0.40;99.90;;;;;;5013111;28;20165;-63
2024/03/08 05:51:39;;;;;;;29.27;18.30;;;0.50;99.90;;;;;;5011917;28;20188;-63
2024/03/08 05:54:08;;;;;;;25.43;18.13;;;0.50;99.90;;;;;;5012685;28;20455;-63
2024/03/08 05:56:34;;;;;;;37.67;20.90;;;0.40;99.90;;;;;;5012792;28;20423;-63
2024/03/08 05:59:01;;;;;;;31.20;20.13;;;0.50;99.90;;;;;;5003618;28;20945;-63
2024/03/08 06:01:28;;;;;;;35.20;20.03;;;0.50;99.90;;;;;;5012074;28;20457;-63
2024/03/08 06:03:57;;;;;;;32.00;19.53;;;0.50;99.90;;;;;;5010729;28;20466;-63
2024/03/08 06:06:23;;;;;;;33.40;19.53;;;0.60;99.90;;;;;;5007185;28;20419;-63
2024/03/08 06:08:50;;;;;;;32.00;17.97;;;0.60;99.90;;;;;;5012328;28;20846;-62
2024/03/08 06:11:17;;;;;;;32.83;18.70;;;0.60;99.90;;;;;;5012768;28;20629;-62
2024/03/08 06:13:43;;;;;;;35.10;21.30;;;0.60;99.90;;;;;;5014616;28;20414;-62
2024/03/08 06:16:09;;;;;;;33.73;20.57;;;0.70;99.90;;;;;;5017719;28;20498;-62
2024/03/08 06:18:41;;;;;;;31.70;20.10;;;0.70;99.90;;;;;;5010071;28;20467;-62
2024/03/08 06:21:09;;;;;;;31.80;21.20;;;0.80;99.90;;;;;;5006264;28;20227;-63
2024/03/08 06:23:41;;;;;;;32.00;19.90;;;0.80;99.90;;;;;;5013142;28;20914;-62
2024/03/08 06:26:09;;;;;;;35.90;19.90;;;0.90;99.90;;;;;;5012500;28;20566;-63
2024/03/08 06:28:35;;;;;;;33.73;20.53;;;1.00;99.90;;;;;;5013006;28;20415;-63
2024/03/08 06:31:01;;;;;;;26.67;17.87;;;1.10;99.90;;;;;;5013085;28;20428;-61
2024/03/08 06:33:28;;;;;;;30.67;18.07;;;1.20;99.90;;;;;;5013285;28;20176;-63
2024/03/08 06:35:57;;;;;;;35.47;19.77;;;1.30;99.90;;;;;;5012424;28;20430;-62
2024/03/08 06:38:23;;;;;;;34.13;21.10;;;1.40;99.90;;;;;;5012566;28;20538;-64
2024/03/08 06:40:49;;;;;;;36.70;19.80;;;1.70;99.90;;;;;;5011513;28;20830;-63
2024/03/08 06:43:16;;;;;;;32.27;19.77;;;2.10;99.90;;;;;;5011664;28;20462;-63
2024/03/08 06:45:48;;;;;;;31.57;18.80;;;2.60;99.90;;;;;;5011084;28;20690;-63
2024/03/08 06:48:14;;;;;;;34.93;19.67;;;3.00;99.90;;;;;;5005555;28;20866;-63
2024/03/08 06:50:40;;;;;;;34.37;18.90;;;3.10;99.90;;;;;;5011751;28;20419;-63
2024/03/08 06:53:06;;;;;;;29.83;19.43;;;3.10;99.90;;;;;;5011953;28;20432;-63
2024/03/08 06:55:32;;;;;;;32.00;16.57;;;3.40;99.90;;;;;;5004064;28;20246;-63
2024/03/08 06:57:58;;;;;;;31.30;17.47;;;3.80;99.90;;;;;;5010231;28;20185;-63
2024/03/08 07:00:26;;;;;;;26.47;16.47;;;4.10;99.90;;;;;;5011342;28;20422;-63
2024/03/08 07:02:53;;;;;;;32.13;19.63;;;4.10;99.90;;;;;;5011181;28;20182;-63
2024/03/08 07:05:19;;;;;;;26.83;18.07;;;4.10;99.90;;;;;;5011659;28;20810;-63
2024/03/08 07:07:48;;;;;;;27.97;20.73;;;4.10;99.90;;;;;;5011117;28;20424;-63
2024/03/08 07:10:15;;;;;;;27.57;17.30;;;4.30;99.90;;;;;;5002683;28;20549;-63
2024/03/08 07:12:41;;;;;;;31.37;19.10;;;4.50;99.90;;;;;;5011232;28;20937;-62
2024/03/08 07:15:07;;;;;;;33.30;19.03;;;4.70;99.90;;;;;;5010448;28;20471;-63
2024/03/08 07:17:35;;;;;;;26.83;18.33;;;5.00;99.90;;;;;;5010258;28;20412;-63
2024/03/08 07:20:06;;;;;;;27.93;19.77;;;4.90;99.90;;;;;;5011114;28;20416;-63
2024/03/08 07:22:33;;;;;;;33.30;19.20;;;5.30;99.90;;;;;;5011124;28;20801;-63
2024/03/08 07:27:36;;;;;;;29.23;18.23;;;5.60;99.90;;;;;;5011487;28;20166;-64
2024/03/08 07:30:02;;;;;;;24.30;15.80;;;6.00;99.90;;;;;;5011690;28;20450;-63
2024/03/08 07:32:29;;;;;;;29.37;18.20;;;6.40;99.90;;;;;;5011120;28;20497;-63
2024/03/08 07:34:56;;;;;;;24.17;17.30;;;6.60;99.90;;;;;;5010389;28;20443;-63
2024/03/08 07:37:21;;;;;;;26.90;16.90;;;7.00;99.90;;;;;;5010978;28;20414;-64
2024/03/08 07:39:47;;;;;;;26.97;17.43;;;7.00;99.90;;;;;;5010664;28;20820;-62
2024/03/08 07:42:13;;;;;;;31.97;20.60;;;6.80;99.90;;;;;;5010466;28;20219;-63
2024/03/08 07:44:39;;;;;;;35.90;21.70;;;7.00;99.90;;;;;;5010506;28;20650;-63
2024/03/08 07:47:04;;;;;;;33.57;24.33;;;7.30;99.90;;;;;;5010780;28;20271;-63
2024/03/08 07:49:30;;;;;;;37.57;28.37;;;7.50;99.90;;;;;;5011282;28;20478;-62
2024/03/08 07:51:57;;;;;;;37.83;29.20;;;7.10;99.90;;;;;;5010440;28;20180;-63
2024/03/08 07:54:23;;;;;;;35.43;30.30;;;7.30;99.90;;;;;;5011101;28;20279;-64
2024/03/08 07:56:50;;;;;;;49.50;34.60;;;7.50;99.90;;;;;;5010627;28;20493;-63
2024/03/08 07:59:16;;;;;;;44.93;33.17;;;7.50;99.90;;;;;;5011529;28;20223;-64
2024/03/08 08:01:43;;;;;;;35.20;26.40;;;7.40;99.90;;;;;;5010870;28;20847;-61
2024/03/08 08:04:12;;;;;;;28.60;23.83;;;7.40;99.90;;;;;;5010689;28;20199;-62
2024/03/08 08:06:41;;;;;;;31.10;25.77;;;7.30;99.90;;;;;;5010797;28;20454;-62
2024/03/08 08:09:28;;;;;;;32.50;22.20;;;7.50;99.90;;;;;;5011730;28;20411;-63
2024/03/08 08:11:54;;;;;;;29.30;23.40;;;7.70;99.90;;;;;;5013224;28;20419;-67
2024/03/08 08:14:21;;;;;;;33.90;23.97;;;8.10;99.90;;;;;;5014614;28;20439;-64
2024/03/08 08:16:48;;;;;;;26.90;20.87;;;8.40;99.90;;;;;;5013360;28;20428;-64
2024/03/08 08:19:14;;;;;;;33.17;26.53;;;8.50;99.90;;;;;;5014264;28;20438;-64
2024/03/08 08:21:41;;;;;;;32.50;25.80;;;8.20;99.70;;;;;;5013620;28;20968;-63
2024/03/08 08:24:07;;;;;;;29.87;22.23;;;8.20;99.90;;;;;;5013400;28;20454;-63
2024/03/08 08:26:33;;;;;;;32.87;22.47;;;8.20;99.30;;;;;;5014165;28;20172;-61
2024/03/08 08:28:59;;;;;;;27.63;21.10;;;8.00;98.90;;;;;;5014108;28;20192;-62
2024/03/08 08:31:26;;;;;;;27.70;20.63;;;8.10;98.70;;;;;;5013754;28;20505;-63
2024/03/08 08:33:57;;;;;;;25.93;19.57;;;8.60;97.90;;;;;;5013785;28;20188;-63
2024/03/08 08:36:23;;;;;;;27.43;21.33;;;8.70;97.40;;;;;;5012158;28;20443;-62
2024/03/08 08:38:50;;;;;;;29.10;19.67;;;9.10;96.00;;;;;;5012516;28;20422;-63
2024/03/08 08:41:17;;;;;;;27.97;19.90;;;10.20;95.50;;;;;;5013957;28;20509;-63
2024/03/08 08:43:43;;;;;;;25.73;17.60;;;10.50;91.50;;;;;;5013614;28;20418;-62
2024/03/08 08:46:13;;;;;;;23.73;16.50;;;10.50;88.50;;;;;;5013709;28;20459;-62
2024/03/08 08:48:41;;;;;;;22.97;16.97;;;11.20;88.70;;;;;;5014623;28;20455;-61
2024/03/08 08:51:12;;;;;;;21.00;16.10;;;11.60;83.30;;;;;;5014755;28;20415;-62
2024/03/08 08:53:43;;;;;;;18.37;14.67;;;11.30;80.70;;;;;;5014317;28;20432;-63
2024/03/08 08:56:15;;;;;;;23.50;15.90;;;10.90;82.90;;;;;;5013448;28;20913;-62
2024/03/08 08:58:44;;;;;;;23.90;16.40;;;11.40;82.30;;;;;;5013673;28;20983;-63
2024/03/08 09:01:11;;;;;;;21.30;15.43;;;11.30;80.00;;;;;;5013216;28;20426;-62
2024/03/08 09:03:37;;;;;;;24.30;16.83;;;11.60;79.20;;;;;;5013813;28;20427;-64
2024/03/08 09:06:04;;;;;;;21.97;15.50;;;10.90;77.10;;;;;;5014073;28;20419;-62
2024/03/08 09:08:30;;;;;;;22.47;15.40;;;10.40;80.10;;;;;;5014259;28;20213;-63
2024/03/08 09:10:56;;;;;;;20.87;15.30;;;9.80;83.90;;;;;;5013766;28;20443;-64
2024/03/08 09:13:21;;;;;;;21.87;16.10;;;10.20;81.00;;;;;;5013622;28;20595;-63
2024/03/08 09:15:47;;;;;;;25.40;16.80;;;10.30;78.30;;;;;;5013836;28;20455;-63
2024/03/08 09:18:12;;;;;;;23.17;18.10;;;10.30;80.80;;;;;;5013831;28;20527;-62
2024/03/08 09:20:38;;;;;;;24.30;17.10;;;10.30;80.10;;;;;;5013000;28;20188;-62
2024/03/08 09:23:04;;;;;;;23.70;17.73;;;10.10;79.30;;;;;;5013065;28;20549;-63
2024/03/08 09:25:29;;;;;;;21.03;16.27;;;10.20;80.60;;;;;;5013410;28;20671;-63
2024/03/08 09:27:55;;;;;;;24.97;19.47;;;10.20;81.40;;;;;;5012849;28;20279;-61
2024/03/08 09:30:21;;;;;;;24.70;17.87;;;10.10;78.90;;;;;;5013148;28;20419;-62
2024/03/08 09:32:47;;;;;;;24.27;16.50;;;10.20;80.60;;;;;;5013533;28;20263;-61
2024/03/08 09:35:13;;;;;;;22.60;15.73;;;10.80;77.30;;;;;;5010424;28;20246;-62
2024/03/08 09:37:39;;;;;;;24.60;15.50;;;10.00;77.10;;;;;;5012851;28;20428;-61
2024/03/08 09:40:09;;;;;;;22.30;16.00;;;9.10;82.70;;;;;;5013147;28;20204;-62
2024/03/08 09:42:37;;;;;;;22.17;16.10;;;8.40;85.50;;;;;;5007986;28;20489;-62
2024/03/08 09:45:07;;;;;;;22.53;14.10;;;8.20;88.20;;;;;;5012837;28;20490;-61
2024/03/08 09:47:34;;;;;;;23.27;15.60;;;8.10;88.80;;;;;;5023477;28;20423;-60
2024/03/08 09:50:01;;;;;;;23.73;14.63;;;7.70;90.00;;;;;;5012973;28;20466;-61
2024/03/08 09:52:26;;;;;;;26.17;17.03;;;7.80;90.70;;;;;;5012693;28;20890;-61
2024/03/08 09:54:52;;;;;;;26.70;16.10;;;7.60;91.30;;;;;;5012526;28;20435;-62
2024/03/08 09:57:19;;;;;;;24.63;15.60;;;7.40;91.70;;;;;;5011899;28;20179;-64
2024/03/08 09:59:47;;;;;;;23.23;15.83;;;7.30;92.40;;;;;;5012073;28;20571;-63
2024/03/08 10:02:16;;;;;;;17.00;13.87;;;7.10;92.50;;;;;;5012000;28;20801;-64
2024/03/08 10:04:42;;;;;;;22.83;14.70;;;7.10;92.30;;;;;;5012090;28;20786;-64
2024/03/08 10:07:08;;;;;;;25.27;17.10;;;6.90;92.50;;;;;;5011733;28;20421;-64
2024/03/08 10:09:33;;;;;;;20.17;15.27;;;6.60;93.20;;;;;;5011591;28;20417;-64
2024/03/08 10:11:59;;;;;;;28.00;15.03;;;6.50;93.90;;;;;;5010612;28;20176;-63
2024/03/08 10:14:28;;;;;;;22.27;14.93;;;6.60;93.90;;;;;;5012045;28;20306;-63
2024/03/08 10:16:53;;;;;;;24.90;15.10;;;6.70;93.70;;;;;;5010918;28;20204;-65
2024/03/08 10:19:20;;;;;;;21.40;14.90;;;6.80;93.70;;;;;;5011480;28;20515;-62
2024/03/08 10:21:56;;;;;;;22.10;15.03;;;6.90;93.70;;;;;;5011878;28;20551;-64
2024/03/08 10:24:23;;;;;;;18.73;13.73;;;6.80;93.50;;;;;;5005367;28;20996;-63
2024/03/08 10:27:04;;;;;;;21.20;15.47;;;6.70;92.90;;;;;;5012079;28;20771;-62
2024/03/08 10:29:31;;;;;;;19.97;14.37;;;6.60;93.80;;;;;;5006141;28;20495;-63
2024/03/08 10:31:56;;;;;;;20.43;13.77;;;6.80;94.30;;;;;;5012304;28;20505;-62
2024/03/08 10:34:23;;;;;;;23.27;14.70;;;6.90;94.50;;;;;;5011467;28;20530;-63
2024/03/08 10:36:51;;;;;;;26.13;15.10;;;6.70;94.70;;;;;;5008345;28;20186;-62
2024/03/08 10:39:29;;;;;;;22.60;13.27;;;6.60;94.70;;;;;;5010622;28;20537;-63
2024/03/08 10:42:02;;;;;;;20.20;14.37;;;6.70;94.40;;;;;;5008539;28;20453;-63
2024/03/08 10:44:31;;;;;;;27.40;14.20;;;6.70;94.00;;;;;;5011950;28;20947;-63
2024/03/08 10:47:10;;;;;;;24.97;14.87;;;6.80;94.10;;;;;;5011130;28;20415;-63
2024/03/08 10:49:48;;;;;;;20.50;13.60;;;6.70;94.20;;;;;;5011788;28;20793;-66
2024/03/08 10:52:17;;;;;;;25.10;15.00;;;6.70;93.70;;;;;;5011676;28;20415;-63
2024/03/08 10:54:44;;;;;;;21.63;14.00;;;6.80;94.10;;;;;;5011138;28;20459;-63
2024/03/08 10:57:15;;;;;;;20.37;13.47;;;7.00;93.90;;;;;;5009608;28;20784;-63
2024/03/08 10:59:43;;;;;;;20.17;14.37;;;7.10;93.00;;;;;;5011704;28;20420;-68
2024/03/08 11:02:11;;;;;;;19.43;13.23;;;7.10;92.80;;;;;;5011282;28;20606;-75
2024/03/08 11:04:38;;;;;;;16.73;12.17;;;7.20;92.80;;;;;;5010395;28;20843;-66
2024/03/08 11:07:06;;;;;;;17.40;12.70;;;7.30;92.00;;;;;;5011250;28;20440;-63
2024/03/08 11:09:36;;;;;;;17.07;12.87;;;7.30;86.00;;;;;;5011455;28;20413;-65
2024/03/08 11:12:32;;;;;;;17.40;11.73;;;7.20;83.90;;;;;;5011232;28;20419;-65
2024/03/08 11:15:04;;;;;;;14.83;11.63;;;7.20;85.10;;;;;;5008110;28;20956;-66
2024/03/08 11:17:33;;;;;;;18.67;12.20;;;7.20;86.60;;;;;;5010989;28;20710;-65
2024/03/08 11:20:01;;;;;;;17.50;11.93;;;7.40;86.90;;;;;;5011492;28;20899;-64
2024/03/08 11:22:32;;;;;;;19.07;12.53;;;7.40;81.00;;;;;;5011559;28;20923;-64
2024/03/08 11:25:01;;;;;;;15.70;10.83;;;7.60;79.20;;;;;;5010797;28;20463;-65
2024/03/08 11:27:33;;;;;;;19.23;11.67;;;7.40;80.50;;;;;;5012093;28;21010;-63
2024/03/08 11:30:23;;;;;;;17.47;12.13;;;7.50;82.20;;;;;;5010444;28;20855;-69
2024/03/08 11:32:52;;;;;;;17.00;11.90;;;7.60;82.30;;;;;;5007515;28;20946;-63
2024/03/08 11:35:22;;;;;;;18.60;11.90;;;7.80;81.70;;;;;;5010922;28;20434;-64
2024/03/08 11:37:49;;;;;;;20.83;13.10;;;7.90;82.40;;;;;;5011127;28;20421;-64
2024/03/08 11:40:19;;;;;;;17.20;13.00;;;7.90;83.40;;;;;;5011481;28;20423;-66
2024/03/08 11:42:49;;;;;;;17.27;11.63;;;7.80;83.50;;;;;;5011521;28;20499;-63
2024/03/08 11:45:18;;;;;;;21.40;13.70;;;7.90;84.00;;;;;;5014166;28;20470;-64
2024/03/08 11:47:47;;;;;;;19.73;12.63;;;7.90;83.30;;;;;;5012366;28;20508;-65
2024/03/08 11:50:13;;;;;;;20.10;12.43;;;7.80;82.60;;;;;;5002450;28;20784;-65
2024/03/08 11:52:39;;;;;;;16.97;11.37;;;7.80;83.20;;;;;;5014675;28;20467;-65
2024/03/08 11:55:06;;;;;;;20.50;13.67;;;7.90;83.10;;;;;;5012946;28;20521;-63
2024/03/08 11:57:32;;;;;;;21.27;13.23;;;7.90;80.60;;;;;;5013302;28;20417;-65
2024/03/08 12:00:06;;;;;;;18.60;12.40;;;7.90;80.70;;;;;;5014598;28;20798;-63
2024/03/08 12:02:37;;;;;;;16.20;10.97;;;8.00;78.60;;;;;;5011964;28;20545;-64
2024/03/08 12:05:03;;;;;;;15.93;11.67;;;8.00;78.40;;;;;;5014158;28;20471;-70
2024/03/08 12:07:32;;;;;;;17.33;12.97;;;8.00;79.60;;;;;;5014772;28;20810;-64
2024/03/08 12:10:19;;;;;;;21.13;13.47;;;8.00;79.50;;;;;;5011640;28;20485;-64
2024/03/08 12:12:51;;;;;;;19.90;12.73;;;8.00;78.70;;;;;;5009452;28;20897;-65
2024/03/08 12:15:18;;;;;;;16.67;11.90;;;8.00;78.30;;;;;;5014176;28;20466;-65
2024/03/08 12:17:45;;;;;;;19.70;12.20;;;8.10;78.30;;;;;;5014360;28;20915;-65
2024/03/08 12:20:30;;;;;;;19.73;13.40;;;8.20;78.30;;;;;;5014614;28;20450;-66
2024/03/08 12:22:56;;;;;;;20.20;13.20;;;8.20;77.50;;;;;;5014472;28;20501;-65
2024/03/08 12:25:26;;;;;;;18.50;11.97;;;8.30;77.80;;;;;;5013999;28;20471;-65
2024/03/08 12:27:53;;;;;;;16.60;11.90;;;8.30;76.70;;;;;;5012592;28;20441;-64
2024/03/08 12:30:23;;;;;;;21.90;13.57;;;8.20;77.20;;;;;;5013729;28;20997;-66
2024/03/08 12:32:58;;;;;;;16.00;11.47;;;8.20;76.10;;;;;;5009336;28;20420;-65
2024/03/08 12:35:26;;;;;;;22.50;13.40;;;8.30;75.80;;;;;;5014445;28;20533;-65
2024/03/08 12:38:00;;;;;;;15.70;11.90;;;8.50;75.50;;;;;;5014394;28;20538;-66